WXM80 ListenWXM80 Stop

You find our weather info also at:

UK Metoffice

WeatherCloud

Weather Underground

Northeastern Weather Network

AWEKAS

Citizen Weather Observer Program (CWOP)

HAMweather, WeatherForYou, PWS Weather


Weather Underground History page Text

Daily Summary for April 27, 2017 Units:  English    Metric   Both
« Previous Day
Next Day »
Daily Weekly Monthly Yearly Custom
  High: Low: Average:
Temperature: 66.8 °F 53.7 °F 59.8 °F
Dew Point: 62.4 °F 52.9 °F 57.9 °F
Humidity: 99 % 79 % 94 %
Wind Speed: 6.9 mph 0.0 mph 1 mph
Wind Gust: 14.0 mph - -
Wind:- - SE
Pressure: 29.90 in 29.80 in -
Precipitation: 0.01 in    
Historical Graphs
 
 
Tabular Data for April 27, 2017
Time Temperature Dew Point Pressure Wind Wind Speed Wind Gust Humidity Rainfall Rate (Hourly)
00:01 53.7 °F 52.9 °F 29.81 in Calm     97 % 0.00 in
00:06 53.7 °F 52.9 °F 29.81 in Calm     97 % 0.00 in
00:11 53.7 °F 52.9 °F 29.81 in Calm     97 % 0.00 in
00:16 53.7 °F 52.9 °F 29.82 in Calm     97 % 0.00 in
00:21 53.7 °F 52.9 °F 29.81 in Calm     97 % 0.00 in
00:26 53.7 °F 52.9 °F 29.81 in Calm     97 % 0.00 in
00:31 53.7 °F 52.9 °F 29.81 in Calm     97 % 0.00 in
00:36 53.7 °F 52.9 °F 29.81 in Calm     97 % 0.00 in
00:41 53.7 °F 52.9 °F 29.80 in Calm     97 % 0.00 in
00:46 53.7 °F 52.9 °F 29.80 in Calm     97 % 0.00 in
00:51 53.7 °F 52.9 °F 29.80 in Calm     97 % 0.00 in
00:56 53.7 °F 52.9 °F 29.80 in Calm     97 % 0.00 in
01:02 53.7 °F 52.9 °F 29.80 in Calm     97 % 0.00 in
01:06 53.8 °F 53.0 °F 29.80 in Calm     97 % 0.00 in
01:12 53.9 °F 53.1 °F 29.80 in Calm     97 % 0.00 in
01:17 54.1 °F 53.5 °F 29.80 in Calm     98 % 0.00 in
01:22 54.4 °F 53.6 °F 29.81 in WNW 1.2 mph 3.5 mph 97 % 0.00 in
01:27 54.5 °F 53.9 °F 29.81 in WNW 0.3 mph 2.3 mph 98 % 0.00 in
01:32 54.6 °F 54.0 °F 29.81 in WNW 0.8 mph 2.3 mph 98 % 0.00 in
01:37 54.7 °F 54.1 °F 29.81 in WNW 0.2 mph 2.3 mph 98 % 0.00 in
01:42 54.8 °F 54.2 °F 29.81 in WNW 1.0 mph 2.3 mph 98 % 0.00 in
01:47 54.8 °F 54.2 °F 29.82 in WNW 1.8 mph 3.5 mph 98 % 0.00 in
01:52 54.9 °F 54.3 °F 29.81 in WNW 1.1 mph 2.3 mph 98 % 0.00 in
01:57 55.0 °F 54.4 °F 29.82 in WNW 0.3 mph 1.2 mph 98 % 0.00 in
02:02 55.0 °F 54.4 °F 29.81 in Calm   2.3 mph 98 % 0.00 in
02:08 55.1 °F 54.5 °F 29.81 in WNW 1.7 mph 3.5 mph 98 % 0.00 in
02:13 55.1 °F 54.5 °F 29.81 in WNW 1.7 mph 3.5 mph 98 % 0.00 in
02:18 55.1 °F 54.5 °F 29.81 in Calm   2.3 mph 98 % 0.00 in
02:23 55.2 °F 54.6 °F 29.82 in Calm     98 % 0.00 in
02:28 55.2 °F 54.6 °F 29.82 in WNW 0.1 mph 1.2 mph 98 % 0.00 in
02:31 55.2 °F 54.6 °F 29.82 in Calm   1.2 mph 98 % 0.00 in
02:36 55.2 °F 54.6 °F 29.82 in Calm     98 % 0.00 in
02:41 55.2 °F 54.6 °F 29.82 in Calm     98 % 0.00 in
02:46 55.3 °F 54.7 °F 29.81 in Calm     98 % 0.00 in
02:51 55.3 °F 54.7 °F 29.82 in Calm     98 % 0.00 in
02:57 55.3 °F 54.7 °F 29.82 in Calm     98 % 0.00 in
03:02 55.4 °F 54.8 °F 29.82 in Calm     98 % 0.00 in
03:07 55.5 °F 54.9 °F 29.82 in Calm     98 % 0.00 in
03:12 55.5 °F 54.9 °F 29.83 in Calm     98 % 0.00 in
03:17 55.5 °F 54.9 °F 29.83 in Calm     98 % 0.00 in
03:22 55.5 °F 54.9 °F 29.83 in Calm     98 % 0.00 in
03:27 55.5 °F 54.9 °F 29.83 in Calm     98 % 0.00 in
03:28 55.5 °F 54.9 °F 29.83 in Calm     98 % 0.00 in
03:33 55.5 °F 54.9 °F 29.82 in Calm     98 % 0.00 in
03:38 55.6 °F 55.0 °F 29.83 in Calm     98 % 0.00 in
03:43 55.6 °F 55.0 °F 29.83 in Calm     98 % 0.00 in
03:48 55.6 °F 55.0 °F 29.82 in Calm     98 % 0.00 in
03:53 55.7 °F 55.1 °F 29.82 in Calm     98 % 0.00 in
03:58 55.7 °F 55.1 °F 29.82 in Calm     98 % 0.00 in
04:03 55.7 °F 55.1 °F 29.82 in Calm     98 % 0.00 in
04:08 55.7 °F 55.1 °F 29.82 in Calm     98 % 0.00 in
04:14 55.7 °F 55.1 °F 29.82 in Calm     98 % 0.00 in
04:19 55.7 °F 55.1 °F 29.82 in Calm     98 % 0.00 in
04:24 55.7 °F 55.1 °F 29.82 in Calm     98 % 0.00 in
04:29 55.7 °F 55.1 °F 29.82 in Calm     98 % 0.00 in
04:34 55.8 °F 55.2 °F 29.83 in Calm     98 % 0.00 in
04:39 55.8 °F 55.2 °F 29.83 in Calm     98 % 0.00 in
04:44 55.8 °F 55.2 °F 29.83 in Calm     98 % 0.00 in
04:49 55.8 °F 55.2 °F 29.83 in Calm     98 % 0.00 in
04:54 55.8 °F 55.2 °F 29.83 in Calm     98 % 0.00 in
04:59 55.9 °F 55.3 °F 29.83 in Calm     98 % 0.00 in
05:04 55.9 °F 55.3 °F 29.83 in Calm     98 % 0.00 in
05:10 55.9 °F 55.3 °F 29.83 in Calm     98 % 0.00 in
05:15 56.0 °F 55.4 °F 29.83 in Calm     98 % 0.00 in
05:20 56.0 °F 55.4 °F 29.83 in Calm     98 % 0.00 in
05:25 56.0 °F 55.4 °F 29.83 in Calm     98 % 0.00 in
05:30 56.0 °F 55.4 °F 29.83 in Calm     98 % 0.00 in
05:35 56.0 °F 55.4 °F 29.84 in Calm     98 % 0.00 in
05:40 56.0 °F 55.4 °F 29.84 in Calm     98 % 0.00 in
05:45 55.9 °F 55.3 °F 29.84 in Calm     98 % 0.00 in
05:50 55.9 °F 55.3 °F 29.84 in Calm     98 % 0.00 in
05:51 55.9 °F 55.3 °F 29.84 in Calm     98 % 0.00 in
05:56 55.8 °F 55.2 °F 29.84 in Calm     98 % 0.00 in
06:02 55.8 °F 55.2 °F 29.84 in Calm     98 % 0.00 in
06:07 55.7 °F 55.1 °F 29.85 in Calm     98 % 0.00 in
06:12 55.7 °F 55.1 °F 29.85 in Calm     98 % 0.00 in
06:17 55.7 °F 55.1 °F 29.85 in Calm     98 % 0.00 in
06:22 55.7 °F 55.1 °F 29.85 in Calm     98 % 0.00 in
06:27 55.6 °F 55.0 °F 29.85 in Calm     98 % 0.00 in
06:32 55.6 °F 55.0 °F 29.85 in Calm     98 % 0.00 in
06:37 55.6 °F 55.0 °F 29.85 in Calm     98 % 0.00 in
06:42 55.7 °F 55.1 °F 29.86 in Calm     98 % 0.00 in
06:47 55.7 °F 55.1 °F 29.86 in Calm     98 % 0.00 in
06:52 55.7 °F 55.1 °F 29.86 in Calm     98 % 0.00 in
06:57 55.7 °F 55.1 °F 29.87 in Calm     98 % 0.00 in
07:03 55.7 °F 55.1 °F 29.87 in Calm     98 % 0.00 in
07:08 55.8 °F 55.2 °F 29.87 in Calm     98 % 0.00 in
07:13 55.8 °F 55.2 °F 29.87 in Calm     98 % 0.00 in
07:23 56.0 °F 55.4 °F 29.87 in Calm     98 % 0.00 in
07:28 56.1 °F 55.5 °F 29.87 in Calm     98 % 0.00 in
07:33 56.4 °F 55.8 °F 29.88 in Calm     98 % 0.00 in
07:38 56.7 °F 56.1 °F 29.88 in Calm     98 % 0.00 in
07:43 56.9 °F 56.6 °F 29.88 in Calm     99 % 0.00 in
07:48 57.1 °F 56.5 °F 29.88 in Calm     98 % 0.00 in
07:53 57.3 °F 57.0 °F 29.88 in Calm     99 % 0.00 in
07:59 57.6 °F 57.3 °F 29.88 in Calm     99 % 0.00 in
08:04 57.8 °F 57.2 °F 29.88 in Calm     98 % 0.00 in
08:09 58.0 °F 57.7 °F 29.88 in Calm     99 % 0.00 in
08:14 58.1 °F 57.8 °F 29.88 in Calm     99 % 0.00 in
08:19 58.3 °F 57.7 °F 29.89 in Calm     98 % 0.00 in
08:24 58.3 °F 57.7 °F 29.89 in Calm     98 % 0.00 in
08:29 58.3 °F 57.7 °F 29.89 in Calm     98 % 0.00 in
08:34 58.4 °F 57.8 °F 29.89 in Calm     98 % 0.00 in
08:39 58.4 °F 57.8 °F 29.89 in Calm     98 % 0.00 in
08:45 58.3 °F 57.7 °F 29.89 in Calm     98 % 0.00 in
08:50 58.2 °F 57.6 °F 29.89 in Calm     98 % 0.00 in
08:52 58.3 °F 57.7 °F 29.88 in Calm     98 % 0.00 in
08:57 58.3 °F 57.7 °F 29.89 in Calm     98 % 0.00 in
09:02 58.4 °F 57.8 °F 29.89 in Calm     98 % 0.00 in
09:07 58.5 °F 57.9 °F 29.89 in Calm     98 % 0.00 in
09:12 58.6 °F 58.3 °F 29.89 in Calm     99 % 0.00 in
09:17 58.7 °F 58.4 °F 29.90 in Calm     99 % 0.00 in
09:23 58.8 °F 58.5 °F 29.90 in Calm     99 % 0.00 in
09:28 58.9 °F 58.6 °F 29.90 in Calm     99 % 0.00 in
09:33 58.9 °F 58.3 °F 29.90 in Calm     98 % 0.00 in
09:38 59.0 °F 58.4 °F 29.90 in Calm     98 % 0.00 in
09:43 59.1 °F 58.5 °F 29.90 in Calm     98 % 0.00 in
09:48 59.2 °F 58.9 °F 29.90 in Calm     99 % 0.00 in
09:53 59.3 °F 59.0 °F 29.90 in Calm     99 % 0.00 in
09:58 59.5 °F 59.2 °F 29.90 in Calm     99 % 0.00 in
10:03 59.6 °F 59.0 °F 29.90 in Calm     98 % 0.00 in
10:09 59.7 °F 59.1 °F 29.89 in WNW 0.1 mph   98 % 0.00 in
10:13 60.1 °F 59.8 °F 29.89 in WNW 0.7 mph 1.2 mph 99 % 0.00 in
10:14 60.1 °F 59.8 °F 29.89 in WNW 0.1 mph 2.3 mph 99 % 0.00 in
10:20 60.4 °F 60.1 °F 29.89 in Calm   3.5 mph 99 % 0.00 in
10:25 60.5 °F 60.2 °F 29.90 in Calm     99 % 0.00 in
10:30 60.6 °F 60.3 °F 29.90 in WSW 1.3 mph 2.3 mph 99 % 0.00 in
10:35 60.7 °F 60.4 °F 29.90 in Calm   1.2 mph 99 % 0.00 in
10:40 60.8 °F 60.5 °F 29.90 in WSW 0.3 mph 1.2 mph 99 % 0.00 in
10:45 60.9 °F 60.3 °F 29.90 in Calm     98 % 0.00 in
10:50 61.1 °F 60.8 °F 29.90 in Calm     99 % 0.00 in
10:55 61.2 °F 60.9 °F 29.90 in Calm   1.2 mph 99 % 0.00 in
11:00 61.4 °F 61.1 °F 29.89 in WSW 0.1 mph 1.2 mph 99 % 0.00 in
11:05 61.7 °F 61.4 °F 29.89 in Calm   1.2 mph 99 % 0.00 in
11:10 62.3 °F 62.0 °F 29.89 in Calm     99 % 0.00 in
11:11 62.4 °F 62.1 °F 29.89 in Calm     99 % 0.00 in
11:16 62.7 °F 62.4 °F 29.88 in WSW 0.1 mph 2.3 mph 99 % 0.00 in
11:21 62.7 °F 62.4 °F 29.89 in NW 2.0 mph 4.0 mph 99 % 0.00 in
11:26 62.5 °F 61.9 °F 29.89 in NNW 0.6 mph 3.5 mph 98 % 0.00 in
11:27 62.5 °F 61.9 °F 29.89 in NNW 0.1 mph 1.2 mph 98 % 0.00 in
11:32 62.6 °F 62.0 °F 29.88 in ENE 2.4 mph 4.0 mph 98 % 0.00 in
11:37 62.6 °F 62.0 °F 29.88 in NNE 0.4 mph 2.3 mph 98 % 0.00 in
11:42 62.8 °F 62.2 °F 29.88 in ENE 1.5 mph 3.5 mph 98 % 0.00 in
11:48 62.7 °F 61.8 °F 29.88 in ENE 3.0 mph 4.6 mph 97 % 0.00 in
11:53 62.8 °F 61.9 °F 29.89 in ENE 2.1 mph 3.5 mph 97 % 0.00 in
11:58 62.8 °F 61.6 °F 29.89 in ENE 2.1 mph 3.5 mph 96 % 0.01 in
12:03 62.9 °F 61.7 °F 29.89 in NNE 1.5 mph 5.0 mph 96 % 0.01 in
12:08 62.9 °F 61.4 °F 29.89 in Calm   1.2 mph 95 % 0.01 in
12:13 63.0 °F 61.5 °F 29.89 in NNE 0.4 mph 2.3 mph 95 % 0.01 in
12:18 62.9 °F 61.1 °F 29.89 in NNE 0.2 mph 2.0 mph 94 % 0.01 in
12:23 62.8 °F 60.7 °F 29.89 in NNE 0.1 mph 2.3 mph 93 % 0.01 in
12:28 62.9 °F 61.1 °F 29.89 in NNE 0.7 mph 3.5 mph 94 % 0.01 in
12:33 63.1 °F 61.3 °F 29.89 in NNE 0.3 mph 2.3 mph 94 % 0.01 in
12:38 63.3 °F 61.2 °F 29.89 in ENE 1.5 mph 2.3 mph 93 % 0.01 in
12:43 63.0 °F 60.3 °F 29.89 in NE 2.5 mph 3.5 mph 91 % 0.01 in
12:48 62.7 °F 59.7 °F 29.89 in NE 1.2 mph 3.0 mph 90 % 0.01 in
12:53 62.7 °F 60.0 °F 29.89 in Calm   1.2 mph 91 % 0.01 in
12:58 62.5 °F 59.8 °F 29.89 in NNE 0.6 mph 2.3 mph 91 % 0.00 in
13:04 62.6 °F 60.5 °F 29.89 in NNE 0.5 mph 3.5 mph 93 % 0.00 in
13:09 62.6 °F 60.2 °F 29.89 in NNE 0.1 mph 1.2 mph 92 % 0.00 in
13:11 62.7 °F 60.3 °F 29.89 in NNE 0.3 mph 1.2 mph 92 % 0.00 in
13:16 62.3 °F 59.3 °F 29.89 in ENE 3.0 mph 3.5 mph 90 % 0.00 in
13:21 61.8 °F 58.8 °F 29.89 in ENE 0.6 mph 1.2 mph 90 % 0.00 in
13:26 61.7 °F 58.7 °F 29.88 in ENE 0.7 mph 1.2 mph 90 % 0.00 in
13:31 61.9 °F 59.5 °F 29.88 in ENE 1.2 mph 3.5 mph 92 % 0.00 in
13:36 62.2 °F 59.8 °F 29.88 in ENE 2.2 mph 3.5 mph 92 % 0.00 in
13:41 62.0 °F 59.0 °F 29.88 in ENE 4.1 mph 4.6 mph 90 % 0.00 in
13:46 61.5 °F 58.2 °F 29.88 in NE 3.1 mph 4.6 mph 89 % 0.00 in
13:51 61.5 °F 58.8 °F 29.88 in ENE 2.0 mph 3.5 mph 91 % 0.00 in
13:57 61.3 °F 58.3 °F 29.88 in ENE 1.4 mph 3.5 mph 90 % 0.00 in
14:02 61.3 °F 58.7 °F 29.88 in ENE 2.0 mph 4.6 mph 91 % 0.00 in
14:07 61.5 °F 59.2 °F 29.88 in NNE 3.0 mph 4.6 mph 92 % 0.00 in
14:12 62.1 °F 60.1 °F 29.88 in ENE 1.5 mph 2.3 mph 93 % 0.00 in
14:17 62.3 °F 59.9 °F 29.88 in ENE 3.0 mph 5.0 mph 92 % 0.00 in
14:22 62.3 °F 59.9 °F 29.88 in ENE 3.3 mph 5.0 mph 92 % 0.00 in
14:27 62.3 °F 59.6 °F 29.88 in NE 3.6 mph 5.0 mph 91 % 0.00 in
14:32 62.4 °F 60.0 °F 29.87 in ENE 2.3 mph 3.5 mph 92 % 0.00 in
14:37 62.5 °F 60.1 °F 29.87 in ENE 2.2 mph 4.6 mph 92 % 0.00 in
14:42 62.7 °F 60.3 °F 29.87 in ENE 1.6 mph 3.5 mph 92 % 0.00 in
14:47 63.0 °F 60.6 °F 29.87 in ENE 2.4 mph 4.0 mph 92 % 0.00 in
14:53 63.1 °F 60.1 °F 29.87 in NE 0.4 mph 3.5 mph 90 % 0.00 in
14:58 63.2 °F 60.2 °F 29.87 in NE 0.9 mph 2.3 mph 90 % 0.00 in
15:03 63.3 °F 60.6 °F 29.86 in ENE 0.7 mph 3.5 mph 91 % 0.00 in
15:08 63.2 °F 60.2 °F 29.86 in ENE 3.8 mph 6.9 mph 90 % 0.00 in
15:13 63.3 °F 60.3 °F 29.86 in ENE 0.4 mph 3.0 mph 90 % 0.00 in
15:18 63.6 °F 60.9 °F 29.86 in ESE 1.5 mph 3.5 mph 91 % 0.00 in
15:23 64.1 °F 61.1 °F 29.86 in SE 0.6 mph 3.5 mph 90 % 0.00 in
15:24 64.3 °F 61.0 °F 29.86 in SSE 2.6 mph 3.5 mph 89 % 0.00 in
15:30 64.8 °F 61.2 °F 29.86 in SSE 3.4 mph 5.0 mph 88 % 0.00 in
15:35 65.3 °F 61.3 °F 29.86 in SSW 3.4 mph 7.0 mph 87 % 0.00 in
15:40 65.7 °F 61.1 °F 29.86 in SSE 2.8 mph 5.8 mph 85 % 0.00 in
15:45 66.1 °F 60.8 °F 29.86 in South 3.0 mph 9.2 mph 83 % 0.00 in
15:49 66.4 °F 61.1 °F 29.86 in SSE 2.2 mph 6.0 mph 83 % 0.00 in
15:54 66.6 °F 60.9 °F 29.86 in SSW 2.9 mph 4.6 mph 82 % 0.00 in
15:59 66.8 °F 61.1 °F 29.85 in SW 1.2 mph 3.5 mph 82 % 0.00 in
16:04 66.7 °F 60.3 °F 29.86 in SE 3.9 mph 10.4 mph 80 % 0.00 in
16:09 66.6 °F 60.2 °F 29.86 in SE 3.0 mph 6.9 mph 80 % 0.00 in
16:14 66.6 °F 60.2 °F 29.85 in South 4.2 mph 8.1 mph 80 % 0.00 in
16:19 66.6 °F 60.6 °F 29.85 in SSW 0.7 mph 3.5 mph 81 % 0.00 in
16:25 66.7 °F 60.7 °F 29.85 in SSW 1.9 mph 8.1 mph 81 % 0.00 in
16:30 66.7 °F 60.3 °F 29.85 in SSE 3.8 mph 8.1 mph 80 % 0.00 in
16:35 66.6 °F 60.6 °F 29.85 in SSE 3.1 mph 4.6 mph 81 % 0.00 in
16:40 66.4 °F 60.0 °F 29.85 in SSE 4.1 mph 9.2 mph 80 % 0.00 in
16:45 66.1 °F 59.7 °F 29.85 in South 2.4 mph 4.6 mph 80 % 0.00 in
16:50 66.0 °F 59.3 °F 29.85 in South 4.0 mph 6.9 mph 79 % 0.00 in
16:55 65.8 °F 59.5 °F 29.85 in South 2.2 mph 5.0 mph 80 % 0.00 in
17:00 65.7 °F 59.4 °F 29.84 in SSE 6.9 mph 11.0 mph 80 % 0.00 in
17:05 65.5 °F 59.2 °F 29.84 in ESE 5.8 mph 11.5 mph 80 % 0.00 in
17:10 65.5 °F 59.5 °F 29.85 in ESE 5.5 mph 8.0 mph 81 % 0.00 in
17:16 65.4 °F 59.1 °F 29.85 in SSE 6.0 mph 12.0 mph 80 % 0.00 in
17:21 65.2 °F 59.2 °F 29.85 in SSE 2.5 mph 8.1 mph 81 % 0.00 in
17:26 65.2 °F 59.2 °F 29.85 in Calm   5.0 mph 81 % 0.00 in
17:31 65.2 °F 59.2 °F 29.86 in SSE 5.0 mph 8.0 mph 81 % 0.00 in
17:36 64.9 °F 58.9 °F 29.86 in SSE 5.0 mph 10.0 mph 81 % 0.00 in
17:41 64.8 °F 59.2 °F 29.86 in SE 6.0 mph 12.0 mph 82 % 0.00 in
17:46 64.8 °F 59.2 °F 29.86 in SSE 1.0 mph 8.0 mph 82 % 0.00 in
17:51 64.8 °F 59.5 °F 29.86 in South 2.0 mph 7.0 mph 83 % 0.00 in
17:56 64.7 °F 59.4 °F 29.87 in SSW 5.0 mph 8.0 mph 83 % 0.00 in
18:01 64.3 °F 58.7 °F 29.87 in South 5.1 mph 9.2 mph 82 % 0.00 in
18:06 63.8 °F 58.8 °F 29.87 in SSE 2.0 mph 14.0 mph 84 % 0.00 in
18:11 63.4 °F 58.5 °F 29.87 in SSE 5.0 mph 9.0 mph 84 % 0.00 in
18:16 63.2 °F 58.6 °F 29.87 in SSE 3.0 mph 9.0 mph 85 % 0.00 in
18:21 63.1 °F 58.8 °F 29.87 in SSE 1.0 mph 6.0 mph 86 % 0.00 in
18:26 63.0 °F 58.7 °F 29.87 in SSE 1.0 mph 6.0 mph 86 % 0.00 in
18:31 62.9 °F 58.6 °F 29.87 in SSE 2.0 mph 12.0 mph 86 % 0.00 in
18:36 62.8 °F 58.9 °F 29.87 in SSE 3.0 mph 8.0 mph 87 % 0.00 in
18:41 62.7 °F 58.8 °F 29.87 in SSE 3.0 mph 9.0 mph 87 % 0.00 in
18:46 62.6 °F 58.7 °F 29.88 in SSE 5.0 mph 9.0 mph 87 % 0.00 in
18:51 62.5 °F 58.6 °F 29.88 in SSE 3.1 mph 6.0 mph 87 % 0.00 in
18:56 62.4 °F 58.8 °F 29.88 in SSE 1.0 mph 4.0 mph 88 % 0.00 in
19:01 62.3 °F 58.7 °F 29.87 in SSE 2.5 mph 4.0 mph 88 % 0.00 in
19:06 62.2 °F 58.6 °F 29.87 in SSE 1.7 mph 5.8 mph 88 % 0.00 in
19:11 62.1 °F 58.5 °F 29.87 in SSE 2.5 mph 3.5 mph 88 % 0.00 in
19:15 62.0 °F 58.4 °F 29.87 in SSE 2.7 mph 5.0 mph 88 % 0.00 in
19:20 61.8 °F 58.5 °F 29.86 in South 1.4 mph 5.8 mph 89 % 0.00 in
19:25 61.7 °F 58.4 °F 29.86 in SE 2.2 mph 4.6 mph 89 % 0.00 in
19:31 61.7 °F 58.4 °F 29.87 in Calm   4.0 mph 89 % 0.00 in
19:36 61.6 °F 58.3 °F 29.87 in SSE 2.1 mph 3.0 mph 89 % 0.00 in
19:41 61.6 °F 58.3 °F 29.87 in SSE 1.0 mph 7.0 mph 89 % 0.00 in
19:46 61.5 °F 58.5 °F 29.87 in South 3.0 mph 6.0 mph 90 % 0.00 in
19:51 61.4 °F 58.4 °F 29.87 in SE 2.9 mph 4.6 mph 90 % 0.00 in
19:56 61.4 °F 58.4 °F 29.87 in SE 1.1 mph 3.5 mph 90 % 0.00 in
20:01 61.4 °F 58.4 °F 29.87 in SSE 1.9 mph 3.0 mph 90 % 0.00 in
20:06 61.3 °F 58.3 °F 29.87 in SSE 1.8 mph 8.1 mph 90 % 0.00 in
20:11 61.3 °F 58.3 °F 29.87 in East 0.8 mph 3.5 mph 90 % 0.00 in
20:16 61.2 °F 58.2 °F 29.87 in SE 1.6 mph 3.5 mph 90 % 0.00 in
20:21 61.1 °F 58.5 °F 29.86 in ESE 0.8 mph 3.5 mph 91 % 0.00 in
20:26 61.1 °F 58.5 °F 29.86 in SE 0.2 mph 3.5 mph 91 % 0.00 in
20:31 61.1 °F 58.5 °F 29.86 in East 1.3 mph 3.5 mph 91 % 0.00 in
20:36 61.0 °F 58.7 °F 29.86 in SE 3.0 mph 4.6 mph 92 % 0.00 in
20:41 61.0 °F 58.7 °F 29.86 in SE 1.0 mph 8.1 mph 92 % 0.00 in
20:46 60.9 °F 58.9 °F 29.86 in SE 0.2 mph 2.3 mph 93 % 0.00 in
20:51 60.9 °F 58.9 °F 29.87 in ESE 0.3 mph 3.5 mph 93 % 0.00 in
20:57 60.9 °F 58.9 °F 29.87 in SE 0.5 mph 2.3 mph 93 % 0.00 in
21:02 60.9 °F 58.9 °F 29.87 in East 0.1 mph 2.3 mph 93 % 0.00 in
21:07 60.9 °F 58.9 °F 29.87 in SE 0.6 mph 2.3 mph 93 % 0.00 in
21:12 60.9 °F 59.2 °F 29.87 in SE 0.2 mph 1.2 mph 94 % 0.00 in
21:17 60.9 °F 59.2 °F 29.87 in SE 1.2 mph 3.5 mph 94 % 0.00 in
21:22 60.9 °F 59.2 °F 29.87 in ESE 1.5 mph 3.5 mph 94 % 0.00 in
21:27 60.9 °F 59.2 °F 29.87 in ESE 2.1 mph 3.5 mph 94 % 0.00 in
21:32 61.0 °F 59.6 °F 29.87 in ESE 4.9 mph 10.4 mph 95 % 0.00 in
21:37 61.0 °F 59.6 °F 29.87 in SE 0.5 mph 2.0 mph 95 % 0.00 in
21:42 61.0 °F 59.6 °F 29.87 in SSE 0.8 mph 3.5 mph 95 % 0.00 in
21:47 61.0 °F 59.6 °F 29.88 in SSE 0.5 mph 2.3 mph 95 % 0.00 in
21:52 61.0 °F 59.6 °F 29.88 in SSE 0.6 mph 3.5 mph 95 % 0.00 in
21:57 61.0 °F 59.9 °F 29.88 in SSW 1.0 mph 2.3 mph 96 % 0.00 in
22:02 61.0 °F 59.6 °F 29.88 in South 2.1 mph 3.5 mph 95 % 0.00 in
22:07 60.9 °F 59.8 °F 29.88 in SSE 2.5 mph 5.8 mph 96 % 0.00 in
22:13 60.9 °F 59.8 °F 29.88 in SSW 0.3 mph 1.0 mph 96 % 0.00 in
22:18 60.9 °F 59.8 °F 29.88 in Calm     96 % 0.00 in
22:23 60.9 °F 59.8 °F 29.88 in SE 0.1 mph 1.2 mph 96 % 0.00 in
22:28 60.8 °F 59.7 °F 29.88 in SSE 2.1 mph 3.5 mph 96 % 0.00 in
22:33 60.7 °F 59.6 °F 29.88 in SSE 3.3 mph 5.8 mph 96 % 0.00 in
22:38 60.6 °F 59.5 °F 29.87 in SE 3.6 mph 4.6 mph 96 % 0.00 in
22:43 60.5 °F 59.4 °F 29.87 in Calm     96 % 0.00 in
22:48 60.5 °F 59.4 °F 29.87 in SE 0.9 mph 3.5 mph 96 % 0.00 in
22:53 60.4 °F 59.3 °F 29.87 in ESE 0.4 mph 2.3 mph 96 % 0.00 in
22:54 60.4 °F 59.3 °F 29.87 in ESE 0.2 mph 1.2 mph 96 % 0.00 in
23:00 60.3 °F 59.2 °F 29.87 in SSE 0.3 mph   96 % 0.00 in
23:05 60.3 °F 59.2 °F 29.87 in Calm   1.2 mph 96 % 0.00 in
23:10 60.1 °F 58.7 °F 29.87 in SE 1.4 mph 4.6 mph 95 % 0.00 in
23:15 60.0 °F 58.6 °F 29.87 in Calm   2.3 mph 95 % 0.00 in
23:20 59.9 °F 58.8 °F 29.87 in Calm   2.3 mph 96 % 0.00 in
23:25 59.9 °F 58.8 °F 29.87 in Calm     96 % 0.00 in
23:30 59.8 °F 58.7 °F 29.87 in SSE 0.3 mph 1.2 mph 96 % 0.00 in
23:35 59.7 °F 58.6 °F 29.86 in SE 0.7 mph 2.3 mph 96 % 0.00 in
23:40 59.6 °F 58.2 °F 29.86 in SE 0.4 mph 3.0 mph 95 % 0.00 in
23:45 59.6 °F 58.5 °F 29.86 in Calm     96 % 0.00 in
23:50 59.6 °F 58.5 °F 29.86 in SE 0.9 mph 1.2 mph 96 % 0.00 in
23:55 59.5 °F 58.4 °F 29.86 in SSE 0.9 mph 1.0 mph 96 % 0.00 in
Crab Meadow Weather
Compliments of Weather Underground - 3 mb

Script developed by  Jim McMurry - jmcmurry@mwt.net Adapted for the template by  Wim van der Kuil - Leuven-Template.eu

Astronomy: The Sun is around 4.5 billion years old.